메인 페이지
METAR-TAF:

METAR-TAF

공항 :

주노, 알래스카, 미국

위도: 58-21-17N, 경도: 134-34-34W, 고도: 6m

현재 날씨관측

예보는 1 시간 5분 전, 03:53시(UTC)에 발표되었습니다.
10kt
온도 9°C
습도 81%
기압 1022 hPa
시정: 16.1km
고도 15000ft 상공 구름 보통
고도 25000ft 상공 구름 보통

METAR: PAJN 160353Z 08010KT 10SM SCT150 SCT250 09/06 A3017 RMK AO2 SLP214 T00890056

시각: 20:58 (04:58 UTC)

예보

예보는 5 시간 36분 전, 23:22시(UTC)에 발표되었습니다.
예보 대상 시간: 16일 00시부터 16일 24시까지 (UTC)
동남동15kt, 순간 최대 풍속 25kt
시정: 10km
고도 1500ft 상공 구름 조금
고도 3500ft 상공 구름 보통
고도 5000ft 상공 흐림
일시적
16일 00시부터 16일 02시까지 (UTC)
동남동11kt
시정: 9.7km
고도 1500ft 상공 구름 보통
고도 2500ft 상공 구름 많음
고도 4000ft 상공 흐림
약한비
16일 1100시부터 (UTC)
동남동10kt
시정: 10km
고도 100ft 상공 구름 조금
고도 400ft 상공 구름 보통
고도 10000ft 상공 흐림
16일 1800시부터 (UTC)
12kt
시정: 10km
고도 200ft 상공 구름 조금
고도 2000ft 상공 구름 보통
고도 3500ft 상공 흐림
약한비
확률 30%
16일 21시부터 16일 24시까지 (UTC)
시정: 6.4km
고도 600ft 상공 구름 조금
고도 1000ft 상공 구름 보통
고도 2500ft 상공 흐림
비, 박무

TAF: PAJN 152322Z 1600/1624 12015G25KT P6SM FEW015 SCT035 OVC050 TEMPO 1600/1602 12011KT 6SM -RA SCT015 BKN025 OVC040 FM161100 12010KT P6SM FEW001 SCT004 OVC100 FM161800 09012KT P6SM -RA FEW002 SCT020 OVC035 PROB30 1621/1624 4SM RA BR FEW006 SCT010 OVC025

4,000개 이상의 공항 관측 자료 및 예보 (METAR 및 TAF 보고).

지도상에서 검색 가능한 기상관측소가 노란 점과 빨간 점으로 표시되어 있습니다.

기상관측소 명을 보려면 표시 위로 마우스를 이동하세요.

날씨 관측과 예보를 보려면 클릭하세요.

지도 변경 : 확대하려면 엑스 표시가 있는 녹색 버튼, 축소하려면 빼기 표시가 있는 녹색 버튼, 다음 페이지의 지도를 보려면 녹색 화살표를 클릭하세요.


METAR-TAF: